sensor_id;sensor_type;location;lat;lon;timestamp;pressure;altitude;pressure_sealevel;temperature;humidity
58991;BME280;44781;53.444;14.476;2023-03-04T00:01:08;101548.91;;;3.27;75.87
58991;BME280;44781;53.444;14.476;2023-03-04T00:03:36;101547.54;;;3.31;75.77
58991;BME280;44781;53.444;14.476;2023-03-04T00:06:04;101551.61;;;3.35;75.84
58991;BME280;44781;53.444;14.476;2023-03-04T00:08:43;101546.17;;;3.36;75.71
58991;BME280;44781;53.444;14.476;2023-03-04T00:11:11;101543.53;;;3.36;75.63
58991;BME280;44781;53.444;14.476;2023-03-04T00:13:40;101542.35;;;3.35;75.57
58991;BME280;44781;53.444;14.476;2023-03-04T00:16:07;101538.17;;;3.35;75.63
58991;BME280;44781;53.444;14.476;2023-03-04T00:18:42;101535.21;;;3.34;75.69
58991;BME280;44781;53.444;14.476;2023-03-04T00:21:12;101536.57;;;3.35;75.66
58991;BME280;44781;53.444;14.476;2023-03-04T00:23:39;101533.00;;;3.38;75.60
58991;BME280;44781;53.444;14.476;2023-03-04T00:26:31;101527.59;;;3.43;75.78
58991;BME280;44781;53.444;14.476;2023-03-04T00:29:01;101522.73;;;3.47;75.89
58991;BME280;44781;53.444;14.476;2023-03-04T00:31:33;101521.92;;;3.50;75.96
58991;BME280;44781;53.444;14.476;2023-03-04T00:34:05;101520.14;;;3.51;75.92
58991;BME280;44781;53.444;14.476;2023-03-04T00:36:48;101513.90;;;3.50;75.95
58991;BME280;44781;53.444;14.476;2023-03-04T00:39:17;101509.52;;;3.50;76.03
58991;BME280;44781;53.444;14.476;2023-03-04T00:41:45;101503.23;;;3.50;76.09
58991;BME280;44781;53.444;14.476;2023-03-04T00:44:12;101498.54;;;3.49;76.05
58991;BME280;44781;53.444;14.476;2023-03-04T00:46:40;101494.00;;;3.49;75.99
58991;BME280;44781;53.444;14.476;2023-03-04T00:49:07;101491.19;;;3.50;76.18
58991;BME280;44781;53.444;14.476;2023-03-04T00:51:35;101482.73;;;3.52;76.18
58991;BME280;44781;53.444;14.476;2023-03-04T00:54:14;101469.13;;;3.51;76.30
58991;BME280;44781;53.444;14.476;2023-03-04T00:56:44;101480.15;;;3.61;76.47
58991;BME280;44781;53.444;14.476;2023-03-04T00:59:11;101481.09;;;3.64;76.46
58991;BME280;44781;53.444;14.476;2023-03-04T01:01:39;101482.64;;;3.65;76.55
58991;BME280;44781;53.444;14.476;2023-03-04T01:04:10;101477.56;;;3.65;76.55
58991;BME280;44781;53.444;14.476;2023-03-04T01:06:41;101475.30;;;3.65;76.66
58991;BME280;44781;53.444;14.476;2023-03-04T01:09:08;101470.55;;;3.65;76.63
58991;BME280;44781;53.444;14.476;2023-03-04T01:11:36;101467.63;;;3.64;76.68
58991;BME280;44781;53.444;14.476;2023-03-04T01:14:04;101466.05;;;3.64;76.63
58991;BME280;44781;53.444;14.476;2023-03-04T01:16:32;101465.08;;;3.67;76.81
58991;BME280;44781;53.444;14.476;2023-03-04T01:19:00;101463.20;;;3.70;76.90
58991;BME280;44781;53.444;14.476;2023-03-04T01:21:27;101466.04;;;3.74;76.93
58991;BME280;44781;53.444;14.476;2023-03-04T01:23:55;101459.81;;;3.77;76.99
58991;BME280;44781;53.444;14.476;2023-03-04T01:26:22;101453.45;;;3.79;77.02
58991;BME280;44781;53.444;14.476;2023-03-04T01:28:50;101453.56;;;3.81;76.98
58991;BME280;44781;53.444;14.476;2023-03-04T01:31:20;101449.67;;;3.82;76.98
58991;BME280;44781;53.444;14.476;2023-03-04T01:33:47;101436.58;;;3.81;77.03
58991;BME280;44781;53.444;14.476;2023-03-04T01:36:15;101432.42;;;3.81;77.06
58991;BME280;44781;53.444;14.476;2023-03-04T01:38:42;101429.23;;;3.82;77.06
58991;BME280;44781;53.444;14.476;2023-03-04T01:41:11;101426.85;;;3.85;77.19
58991;BME280;44781;53.444;14.476;2023-03-04T01:43:39;101423.90;;;3.89;77.16
58991;BME280;44781;53.444;14.476;2023-03-04T01:46:09;101421.08;;;3.94;77.34
58991;BME280;44781;53.444;14.476;2023-03-04T01:48:38;101415.66;;;3.99;77.26
58991;BME280;44781;53.444;14.476;2023-03-04T01:51:12;101412.59;;;4.02;77.14
58991;BME280;44781;53.444;14.476;2023-03-04T01:53:43;101415.81;;;4.04;77.13
58991;BME280;44781;53.444;14.476;2023-03-04T01:56:19;101417.14;;;4.06;77.05
58991;BME280;44781;53.444;14.476;2023-03-04T02:01:44;101394.71;;;4.03;77.14
58991;BME280;44781;53.444;14.476;2023-03-04T02:04:13;101393.09;;;4.04;77.12
58991;BME280;44781;53.444;14.476;2023-03-04T02:06:42;101384.67;;;4.04;77.10
58991;BME280;44781;53.444;14.476;2023-03-04T02:09:13;101379.70;;;4.07;77.08
58991;BME280;44781;53.444;14.476;2023-03-04T02:11:44;101378.59;;;4.08;77.11
58991;BME280;44781;53.444;14.476;2023-03-04T02:14:21;101380.64;;;4.09;77.09
58991;BME280;44781;53.444;14.476;2023-03-04T02:16:49;101369.84;;;4.13;77.07
58991;BME280;44781;53.444;14.476;2023-03-04T02:22:09;101375.02;;;4.14;77.15
58991;BME280;44781;53.444;14.476;2023-03-04T02:24:44;101371.92;;;4.13;76.97
58991;BME280;44781;53.444;14.476;2023-03-04T02:27:14;101372.45;;;4.12;77.14
58991;BME280;44781;53.444;14.476;2023-03-04T02:29:41;101372.64;;;4.12;77.24
58991;BME280;44781;53.444;14.476;2023-03-04T02:32:13;101369.10;;;4.14;77.24
58991;BME280;44781;53.444;14.476;2023-03-04T02:34:46;101366.64;;;4.14;77.34
58991;BME280;44781;53.444;14.476;2023-03-04T02:37:14;101362.42;;;4.15;77.33
58991;BME280;44781;53.444;14.476;2023-03-04T02:39:44;101359.81;;;4.19;77.26
58991;BME280;44781;53.444;14.476;2023-03-04T02:42:12;101359.17;;;4.22;77.24
58991;BME280;44781;53.444;14.476;2023-03-04T02:44:41;101357.98;;;4.25;77.24
58991;BME280;44781;53.444;14.476;2023-03-04T02:47:13;101355.64;;;4.27;77.16
58991;BME280;44781;53.444;14.476;2023-03-04T02:49:44;101356.77;;;4.29;77.18
58991;BME280;44781;53.444;14.476;2023-03-04T02:54:42;101345.95;;;4.33;77.11
58991;BME280;44781;53.444;14.476;2023-03-04T02:57:12;101340.84;;;4.33;77.07
58991;BME280;44781;53.444;14.476;2023-03-04T02:59:41;101339.97;;;4.34;77.08
58991;BME280;44781;53.444;14.476;2023-03-04T03:02:10;101337.69;;;4.34;77.01
58991;BME280;44781;53.444;14.476;2023-03-04T03:04:38;101335.36;;;4.35;77.02
58991;BME280;44781;53.444;14.476;2023-03-04T03:07:08;101336.91;;;4.40;77.00
58991;BME280;44781;53.444;14.476;2023-03-04T03:09:36;101334.79;;;4.45;77.11
58991;BME280;44781;53.444;14.476;2023-03-04T03:12:03;101337.73;;;4.50;77.14
58991;BME280;44781;53.444;14.476;2023-03-04T03:14:31;101336.48;;;4.55;77.05
58991;BME280;44781;53.444;14.476;2023-03-04T03:16:58;101333.94;;;4.57;76.95
58991;BME280;44781;53.444;14.476;2023-03-04T03:19:26;101327.13;;;4.56;77.01
58991;BME280;44781;53.444;14.476;2023-03-04T03:21:53;101322.09;;;4.56;77.05
58991;BME280;44781;53.444;14.476;2023-03-04T03:24:21;101314.33;;;4.57;77.04
58991;BME280;44781;53.444;14.476;2023-03-04T03:26:48;101316.10;;;4.57;76.98
58991;BME280;44781;53.444;14.476;2023-03-04T03:29:15;101317.23;;;4.55;77.03
58991;BME280;44781;53.444;14.476;2023-03-04T03:31:43;101316.54;;;4.55;76.88
58991;BME280;44781;53.444;14.476;2023-03-04T03:34:15;101319.06;;;4.57;77.02
58991;BME280;44781;53.444;14.476;2023-03-04T03:36:42;101318.41;;;4.60;77.09
58991;BME280;44781;53.444;14.476;2023-03-04T03:39:09;101318.75;;;4.64;77.15
58991;BME280;44781;53.444;14.476;2023-03-04T03:41:36;101315.40;;;4.69;77.30
58991;BME280;44781;53.444;14.476;2023-03-04T03:44:03;101313.52;;;4.72;77.21
58991;BME280;44781;53.444;14.476;2023-03-04T03:46:30;101312.37;;;4.75;77.19
58991;BME280;44781;53.444;14.476;2023-03-04T03:48:58;101309.52;;;4.76;77.14
58991;BME280;44781;53.444;14.476;2023-03-04T03:51:25;101305.82;;;4.76;77.06
58991;BME280;44781;53.444;14.476;2023-03-04T03:53:52;101305.27;;;4.77;77.08
58991;BME280;44781;53.444;14.476;2023-03-04T03:56:20;101302.09;;;4.78;76.96
58991;BME280;44781;53.444;14.476;2023-03-04T03:58:47;101279.02;;;4.69;76.98
58991;BME280;44781;53.444;14.476;2023-03-04T04:01:15;101294.98;;;4.84;77.04
58991;BME280;44781;53.444;14.476;2023-03-04T04:03:42;101292.41;;;4.87;77.01
58991;BME280;44781;53.444;14.476;2023-03-04T04:06:09;101289.33;;;4.89;76.96
58991;BME280;44781;53.444;14.476;2023-03-04T04:08:36;101292.55;;;4.92;76.98
58991;BME280;44781;53.444;14.476;2023-03-04T04:11:04;101289.88;;;4.93;76.93
58991;BME280;44781;53.444;14.476;2023-03-04T04:13:31;101288.69;;;4.92;76.89
58991;BME280;44781;53.444;14.476;2023-03-04T04:15:58;101281.20;;;4.91;76.83
58991;BME280;44781;53.444;14.476;2023-03-04T04:18:26;101283.71;;;4.90;76.86
58991;BME280;44781;53.444;14.476;2023-03-04T04:20:53;101282.70;;;4.89;76.84
58991;BME280;44781;53.444;14.476;2023-03-04T04:23:21;101285.00;;;4.88;76.81
58991;BME280;44781;53.444;14.476;2023-03-04T04:25:49;101285.02;;;4.88;76.81
58991;BME280;44781;53.444;14.476;2023-03-04T04:28:17;101292.09;;;4.90;76.83
58991;BME280;44781;53.444;14.476;2023-03-04T04:30:44;101292.88;;;4.92;76.72
58991;BME280;44781;53.444;14.476;2023-03-04T04:33:11;101289.73;;;4.92;76.89
58991;BME280;44781;53.444;14.476;2023-03-04T04:35:38;101292.12;;;4.93;76.94
58991;BME280;44781;53.444;14.476;2023-03-04T04:38:06;101286.36;;;4.93;76.87
58991;BME280;44781;53.444;14.476;2023-03-04T04:40:34;101285.80;;;4.94;76.82
58991;BME280;44781;53.444;14.476;2023-03-04T04:43:03;101274.20;;;4.86;76.96
58991;BME280;44781;53.444;14.476;2023-03-04T04:45:30;101282.63;;;4.94;76.80
58991;BME280;44781;53.444;14.476;2023-03-04T04:47:57;101283.33;;;4.94;76.73
58991;BME280;44781;53.444;14.476;2023-03-04T04:50:28;101286.40;;;4.96;76.81
58991;BME280;44781;53.444;14.476;2023-03-04T04:52:55;101284.78;;;4.97;76.81
58991;BME280;44781;53.444;14.476;2023-03-04T04:55:22;101279.41;;;5.00;76.89
58991;BME280;44781;53.444;14.476;2023-03-04T04:57:50;101279.96;;;5.03;76.87
58991;BME280;44781;53.444;14.476;2023-03-04T05:00:18;101284.43;;;5.05;76.74
58991;BME280;44781;53.444;14.476;2023-03-04T05:02:46;101278.80;;;5.06;76.70
58991;BME280;44781;53.444;14.476;2023-03-04T05:05:14;101275.27;;;5.06;76.70
58991;BME280;44781;53.444;14.476;2023-03-04T05:07:41;101283.45;;;5.07;76.70
58991;BME280;44781;53.444;14.476;2023-03-04T05:10:09;101285.52;;;5.08;76.61
58991;BME280;44781;53.444;14.476;2023-03-04T05:12:36;101284.83;;;5.08;76.57
58991;BME280;44781;53.444;14.476;2023-03-04T05:15:04;101281.91;;;5.06;76.51
58991;BME280;44781;53.444;14.476;2023-03-04T05:17:31;101280.59;;;5.05;76.41
58991;BME280;44781;53.444;14.476;2023-03-04T05:19:58;101280.79;;;5.04;76.45
58991;BME280;44781;53.444;14.476;2023-03-04T05:22:25;101283.53;;;5.05;76.55
58991;BME280;44781;53.444;14.476;2023-03-04T05:24:52;101287.05;;;5.09;76.59
58991;BME280;44781;53.444;14.476;2023-03-04T05:27:20;101285.71;;;5.12;76.59
58991;BME280;44781;53.444;14.476;2023-03-04T05:29:48;101284.67;;;5.15;76.62
58991;BME280;44781;53.444;14.476;2023-03-04T05:32:15;101282.10;;;5.18;76.50
58991;BME280;44781;53.444;14.476;2023-03-04T05:34:42;101282.42;;;5.19;76.35
58991;BME280;44781;53.444;14.476;2023-03-04T05:37:09;101286.14;;;5.21;76.35
58991;BME280;44781;53.444;14.476;2023-03-04T05:39:37;101276.59;;;5.12;76.21
58991;BME280;44781;53.444;14.476;2023-03-04T05:42:04;101272.84;;;5.10;76.06
58991;BME280;44781;53.444;14.476;2023-03-04T05:44:31;101278.61;;;5.14;76.11
58991;BME280;44781;53.444;14.476;2023-03-04T05:46:58;101273.91;;;5.13;76.15
58991;BME280;44781;53.444;14.476;2023-03-04T05:49:25;101274.74;;;5.14;76.02
58991;BME280;44781;53.444;14.476;2023-03-04T05:51:52;101276.58;;;5.16;76.04
58991;BME280;44781;53.444;14.476;2023-03-04T05:54:19;101278.77;;;5.18;76.01
58991;BME280;44781;53.444;14.476;2023-03-04T05:56:47;101278.29;;;5.21;76.07
58991;BME280;44781;53.444;14.476;2023-03-04T05:59:15;101278.17;;;5.24;76.18
58991;BME280;44781;53.444;14.476;2023-03-04T06:01:47;101283.52;;;5.25;76.09
58991;BME280;44781;53.444;14.476;2023-03-04T06:04:14;101284.42;;;5.25;76.04
58991;BME280;44781;53.444;14.476;2023-03-04T06:06:42;101285.92;;;5.23;75.91
58991;BME280;44781;53.444;14.476;2023-03-04T06:09:09;101286.34;;;5.21;75.97
58991;BME280;44781;53.444;14.476;2023-03-04T06:11:45;101282.04;;;5.20;76.03
58991;BME280;44781;53.444;14.476;2023-03-04T06:14:12;101280.80;;;5.20;76.13
58991;BME280;44781;53.444;14.476;2023-03-04T06:16:43;101278.77;;;5.22;76.18
58991;BME280;44781;53.444;14.476;2023-03-04T06:19:10;101282.02;;;5.24;76.10
58991;BME280;44781;53.444;14.476;2023-03-04T06:21:37;101278.80;;;5.25;76.24
58991;BME280;44781;53.444;14.476;2023-03-04T06:24:05;101281.34;;;5.27;76.39
58991;BME280;44781;53.444;14.476;2023-03-04T06:26:32;101282.14;;;5.29;76.39
58991;BME280;44781;53.444;14.476;2023-03-04T06:28:59;101281.26;;;5.29;76.47
58991;BME280;44781;53.444;14.476;2023-03-04T06:31:27;101282.29;;;5.29;76.54
58991;BME280;44781;53.444;14.476;2023-03-04T06:33:55;101281.77;;;5.29;76.54
58991;BME280;44781;53.444;14.476;2023-03-04T06:36:23;101286.19;;;5.28;76.51
58991;BME280;44781;53.444;14.476;2023-03-04T06:38:50;101286.59;;;5.27;76.54
58991;BME280;44781;53.444;14.476;2023-03-04T06:41:17;101292.84;;;5.28;76.58
58991;BME280;44781;53.444;14.476;2023-03-04T06:43:45;101295.55;;;5.30;76.66
58991;BME280;44781;53.444;14.476;2023-03-04T06:46:12;101291.20;;;5.33;76.65
58991;BME280;44781;53.444;14.476;2023-03-04T06:48:39;101292.27;;;5.37;76.68
58991;BME280;44781;53.444;14.476;2023-03-04T06:51:08;101297.58;;;5.40;76.71
58991;BME280;44781;53.444;14.476;2023-03-04T06:53:37;101292.55;;;5.42;76.65
58991;BME280;44781;53.444;14.476;2023-03-04T06:56:05;101294.59;;;5.44;76.76
58991;BME280;44781;53.444;14.476;2023-03-04T06:58:33;101290.57;;;5.44;76.82
58991;BME280;44781;53.444;14.476;2023-03-04T07:03:37;101296.13;;;5.41;76.73
58991;BME280;44781;53.444;14.476;2023-03-04T07:06:05;101301.66;;;5.39;76.69
58991;BME280;44781;53.444;14.476;2023-03-04T07:08:32;101299.79;;;5.38;76.71
58991;BME280;44781;53.444;14.476;2023-03-04T07:10:59;101298.88;;;5.38;76.93
58991;BME280;44781;53.444;14.476;2023-03-04T07:13:26;101298.15;;;5.39;76.80
58991;BME280;44781;53.444;14.476;2023-03-04T07:15:54;101296.35;;;5.40;76.87
58991;BME280;44781;53.444;14.476;2023-03-04T07:18:21;101303.09;;;5.42;76.79
58991;BME280;44781;53.444;14.476;2023-03-04T07:20:51;101301.04;;;5.41;76.68
58991;BME280;44781;53.444;14.476;2023-03-04T07:23:19;101302.59;;;5.42;76.69
58991;BME280;44781;53.444;14.476;2023-03-04T07:25:48;101302.77;;;5.41;76.69
58991;BME280;44781;53.444;14.476;2023-03-04T07:28:16;101299.45;;;5.41;76.80
58991;BME280;44781;53.444;14.476;2023-03-04T07:30:46;101297.92;;;5.40;76.84
58991;BME280;44781;53.444;14.476;2023-03-04T07:33:14;101300.16;;;5.37;76.91
58991;BME280;44781;53.444;14.476;2023-03-04T07:35:41;101297.88;;;5.37;77.00
58991;BME280;44781;53.444;14.476;2023-03-04T07:38:08;101298.48;;;5.39;77.03
58991;BME280;44781;53.444;14.476;2023-03-04T07:40:36;101300.13;;;5.42;76.95
58991;BME280;44781;53.444;14.476;2023-03-04T07:43:03;101297.43;;;5.43;76.95
58991;BME280;44781;53.444;14.476;2023-03-04T07:45:31;101296.67;;;5.45;76.95
58991;BME280;44781;53.444;14.476;2023-03-04T07:48:01;101293.79;;;5.46;76.86
58991;BME280;44781;53.444;14.476;2023-03-04T07:50:29;101293.77;;;5.47;76.83
58991;BME280;44781;53.444;14.476;2023-03-04T07:52:56;101294.48;;;5.46;76.64
58991;BME280;44781;53.444;14.476;2023-03-04T07:55:24;101297.36;;;5.44;76.48
58991;BME280;44781;53.444;14.476;2023-03-04T07:57:52;101301.39;;;5.45;76.51
58991;BME280;44781;53.444;14.476;2023-03-04T08:00:19;101297.64;;;5.42;76.16
58991;BME280;44781;53.444;14.476;2023-03-04T08:02:47;101301.23;;;5.40;75.96
58991;BME280;44781;53.444;14.476;2023-03-04T08:05:14;101300.94;;;5.39;75.49
58991;BME280;44781;53.444;14.476;2023-03-04T08:07:41;101297.08;;;5.39;75.24
58991;BME280;44781;53.444;14.476;2023-03-04T08:10:09;101303.17;;;5.40;74.76
58991;BME280;44781;53.444;14.476;2023-03-04T08:12:37;101297.39;;;5.40;74.32
58991;BME280;44781;53.444;14.476;2023-03-04T08:15:04;101297.25;;;5.39;74.02
58991;BME280;44781;53.444;14.476;2023-03-04T08:17:33;101298.71;;;5.38;73.79
58991;BME280;44781;53.444;14.476;2023-03-04T08:20:00;101297.42;;;5.36;73.57
58991;BME280;44781;53.444;14.476;2023-03-04T08:22:28;101294.69;;;5.34;73.44
58991;BME280;44781;53.444;14.476;2023-03-04T08:24:56;101299.38;;;5.35;73.36
58991;BME280;44781;53.444;14.476;2023-03-04T08:27:24;101299.55;;;5.35;73.37
58991;BME280;44781;53.444;14.476;2023-03-04T08:29:51;101296.73;;;5.35;73.28
58991;BME280;44781;53.444;14.476;2023-03-04T08:32:18;101292.34;;;5.36;73.28
58991;BME280;44781;53.444;14.476;2023-03-04T08:34:46;101293.35;;;5.37;73.22
58991;BME280;44781;53.444;14.476;2023-03-04T08:37:12;101296.56;;;5.39;73.22
58991;BME280;44781;53.444;14.476;2023-03-04T08:39:40;101294.61;;;5.44;73.28
58991;BME280;44781;53.444;14.476;2023-03-04T08:42:08;101295.15;;;5.47;73.31
58991;BME280;44781;53.444;14.476;2023-03-04T08:44:36;101297.63;;;5.50;73.38
58991;BME280;44781;53.444;14.476;2023-03-04T08:47:03;101291.04;;;5.52;73.33
58991;BME280;44781;53.444;14.476;2023-03-04T08:49:32;101286.21;;;5.55;73.14
58991;BME280;44781;53.444;14.476;2023-03-04T08:52:09;101290.38;;;5.56;72.90
58991;BME280;44781;53.444;14.476;2023-03-04T08:54:36;101292.33;;;5.55;72.79
58991;BME280;44781;53.444;14.476;2023-03-04T08:57:10;101295.14;;;5.55;72.53
58991;BME280;44781;53.444;14.476;2023-03-04T08:59:37;101308.33;;;5.54;72.20
58991;BME280;44781;53.444;14.476;2023-03-04T09:02:10;101303.38;;;5.51;71.96
58991;BME280;44781;53.444;14.476;2023-03-04T09:04:38;101300.09;;;5.50;71.90
58991;BME280;44781;53.444;14.476;2023-03-04T09:07:05;101300.25;;;5.50;71.73
58991;BME280;44781;53.444;14.476;2023-03-04T09:09:33;101306.98;;;5.52;71.63
58991;BME280;44781;53.444;14.476;2023-03-04T09:12:01;101300.34;;;5.56;71.53
58991;BME280;44781;53.444;14.476;2023-03-04T09:14:28;101312.47;;;5.59;71.49
58991;BME280;44781;53.444;14.476;2023-03-04T09:16:55;101311.11;;;5.62;71.31
58991;BME280;44781;53.444;14.476;2023-03-04T09:19:23;101314.17;;;5.64;71.28
58991;BME280;44781;53.444;14.476;2023-03-04T09:21:50;101308.83;;;5.66;71.07
58991;BME280;44781;53.444;14.476;2023-03-04T09:24:21;101312.41;;;5.68;71.07
58991;BME280;44781;53.444;14.476;2023-03-04T09:26:52;101311.55;;;5.67;70.88
58991;BME280;44781;53.444;14.476;2023-03-04T09:29:24;101315.63;;;5.66;70.72
58991;BME280;44781;53.444;14.476;2023-03-04T09:31:52;101312.39;;;5.64;70.51
58991;BME280;44781;53.444;14.476;2023-03-04T09:34:20;101319.63;;;5.64;70.45
58991;BME280;44781;53.444;14.476;2023-03-04T09:36:47;101322.14;;;5.62;70.38
58991;BME280;44781;53.444;14.476;2023-03-04T09:39:19;101318.88;;;5.61;70.27
58991;BME280;44781;53.444;14.476;2023-03-04T09:41:51;101321.14;;;5.61;70.17
58991;BME280;44781;53.444;14.476;2023-03-04T09:44:29;101322.18;;;5.62;69.97
58991;BME280;44781;53.444;14.476;2023-03-04T09:47:03;101320.26;;;5.61;69.82
58991;BME280;44781;53.444;14.476;2023-03-04T09:49:33;101320.20;;;5.62;69.89
58991;BME280;44781;53.444;14.476;2023-03-04T09:58:24;101323.90;;;5.66;69.86
58991;BME280;44781;53.444;14.476;2023-03-04T10:01:06;101324.88;;;5.64;69.87
58991;BME280;44781;53.444;14.476;2023-03-04T10:03:45;101324.77;;;5.62;69.89
58991;BME280;44781;53.444;14.476;2023-03-04T10:06:33;101327.88;;;5.63;70.04
58991;BME280;44781;53.444;14.476;2023-03-04T10:09:11;101334.06;;;5.66;70.09
58991;BME280;44781;53.444;14.476;2023-03-04T10:14:32;101342.12;;;5.70;69.81
58991;BME280;44781;53.444;14.476;2023-03-04T10:17:21;101345.84;;;5.69;69.54
58991;BME280;44781;53.444;14.476;2023-03-04T10:19:56;101345.71;;;5.68;69.39
58991;BME280;44781;53.444;14.476;2023-03-04T10:22:31;101350.21;;;5.69;69.29
58991;BME280;44781;53.444;14.476;2023-03-04T10:25:21;101355.86;;;5.72;69.30
58991;BME280;44781;53.444;14.476;2023-03-04T10:28:31;101342.89;;;5.69;69.09
58991;BME280;44781;53.444;14.476;2023-03-04T10:33:32;101362.70;;;5.80;68.73
58991;BME280;44781;53.444;14.476;2023-03-04T10:39:06;101359.15;;;5.77;68.33
58991;BME280;44781;53.444;14.476;2023-03-04T10:41:40;101359.29;;;5.74;68.38
58991;BME280;44781;53.444;14.476;2023-03-04T10:46:46;101362.77;;;5.70;68.55
58991;BME280;44781;53.444;14.476;2023-03-04T10:49:18;101367.53;;;5.70;68.76
58991;BME280;44781;53.444;14.476;2023-03-04T10:55:05;101368.35;;;5.67;69.50
58991;BME280;44781;53.444;14.476;2023-03-04T10:57:48;101369.17;;;5.65;69.62
58991;BME280;44781;53.444;14.476;2023-03-04T11:00:35;101362.88;;;5.64;69.80
58991;BME280;44781;53.444;14.476;2023-03-04T11:03:28;101361.60;;;5.66;69.79
58991;BME280;44781;53.444;14.476;2023-03-04T11:06:09;101360.54;;;5.69;69.93
58991;BME280;44781;53.444;14.476;2023-03-04T11:08:42;101361.05;;;5.74;69.47
58991;BME280;44781;53.444;14.476;2023-03-04T11:11:41;101353.77;;;5.76;69.22
58991;BME280;44781;53.444;14.476;2023-03-04T11:14:30;101349.98;;;5.78;69.17
58991;BME280;44781;53.444;14.476;2023-03-04T11:17:25;101346.66;;;5.81;69.26
58991;BME280;44781;53.444;14.476;2023-03-04T11:20:06;101347.48;;;5.86;69.28
58991;BME280;44781;53.444;14.476;2023-03-04T11:22:36;101351.77;;;5.92;69.61
58991;BME280;44781;53.444;14.476;2023-03-04T11:25:09;101350.45;;;5.99;69.80
58991;BME280;44781;53.444;14.476;2023-03-04T11:27:56;101354.39;;;6.04;69.90
58991;BME280;44781;53.444;14.476;2023-03-04T11:33:27;101368.20;;;6.17;69.84
58991;BME280;44781;53.444;14.476;2023-03-04T11:36:18;101372.63;;;6.23;69.45
58991;BME280;44781;53.444;14.476;2023-03-04T11:38:49;101367.66;;;6.28;69.14
58991;BME280;44781;53.444;14.476;2023-03-04T11:41:40;101380.05;;;6.33;69.17
58991;BME280;44781;53.444;14.476;2023-03-04T11:44:11;101390.75;;;6.37;68.40
58991;BME280;44781;53.444;14.476;2023-03-04T12:10:38;101421.41;;;5.33;66.02
58991;BME280;44781;53.444;14.476;2023-03-04T12:19:16;101413.94;;;4.99;66.51
58991;BME280;44781;53.444;14.476;2023-03-04T12:33:32;101428.74;;;4.54;67.06
58991;BME280;44781;53.444;14.476;2023-03-04T12:38:48;101428.57;;;4.53;67.62
58991;BME280;44781;53.444;14.476;2023-03-04T12:50:23;101434.58;;;4.70;68.63
58991;BME280;44781;53.444;14.476;2023-03-04T12:58:56;101446.84;;;4.82;66.53
58991;BME280;44781;53.444;14.476;2023-03-04T13:01:25;101451.17;;;4.83;65.33
58991;BME280;44781;53.444;14.476;2023-03-04T13:04:37;101447.70;;;4.82;64.52
58991;BME280;44781;53.444;14.476;2023-03-04T13:07:36;101448.63;;;4.81;63.95
58991;BME280;44781;53.444;14.476;2023-03-04T13:10:23;101446.02;;;4.81;63.07
58991;BME280;44781;53.444;14.476;2023-03-04T13:16:26;101446.48;;;4.78;61.73
58991;BME280;44781;53.444;14.476;2023-03-04T13:18:54;101447.02;;;4.78;61.30
58991;BME280;44781;53.444;14.476;2023-03-04T13:21:30;101441.23;;;4.79;60.88
58991;BME280;44781;53.444;14.476;2023-03-04T13:27:45;101441.91;;;4.74;58.85
58991;BME280;44781;53.444;14.476;2023-03-04T13:38:34;101450.95;;;4.71;57.52
58991;BME280;44781;53.444;14.476;2023-03-04T13:43:54;101454.77;;;4.77;57.27
58991;BME280;44781;53.444;14.476;2023-03-04T13:56:36;101452.30;;;5.07;55.26
58991;BME280;44781;53.444;14.476;2023-03-04T14:06:44;101455.91;;;5.25;52.64
58991;BME280;44781;53.444;14.476;2023-03-04T14:09:19;101458.11;;;5.27;52.18
58991;BME280;44781;53.444;14.476;2023-03-04T14:11:50;101459.86;;;5.27;51.78
58991;BME280;44781;53.444;14.476;2023-03-04T14:14:28;101462.86;;;5.26;51.31
58991;BME280;44781;53.444;14.476;2023-03-04T14:17:01;101464.00;;;5.25;50.43
58991;BME280;44781;53.444;14.476;2023-03-04T14:19:37;101466.39;;;5.22;49.85
58991;BME280;44781;53.444;14.476;2023-03-04T14:25:01;101460.73;;;5.14;49.17
58991;BME280;44781;53.444;14.476;2023-03-04T14:27:31;101459.56;;;5.13;48.89
58991;BME280;44781;53.444;14.476;2023-03-04T14:30:27;101459.58;;;5.12;48.72
58991;BME280;44781;53.444;14.476;2023-03-04T14:32:57;101460.80;;;5.13;48.47
58991;BME280;44781;53.444;14.476;2023-03-04T14:35:28;101454.55;;;5.16;48.43
58991;BME280;44781;53.444;14.476;2023-03-04T14:40:59;101451.83;;;5.26;47.97
58991;BME280;44781;53.444;14.476;2023-03-04T14:43:29;101440.72;;;5.28;47.78
58991;BME280;44781;53.444;14.476;2023-03-04T14:46:01;101448.97;;;5.44;47.88
58991;BME280;44781;53.444;14.476;2023-03-04T14:48:31;101446.41;;;5.55;47.85
58991;BME280;44781;53.444;14.476;2023-03-04T14:51:01;101448.55;;;5.65;47.69
58991;BME280;44781;53.444;14.476;2023-03-04T14:53:30;101443.80;;;5.78;47.70
58991;BME280;44781;53.444;14.476;2023-03-04T14:55:58;101442.23;;;5.89;47.66
58991;BME280;44781;53.444;14.476;2023-03-04T14:58:28;101442.41;;;6.01;47.61
58991;BME280;44781;53.444;14.476;2023-03-04T15:01:07;101440.18;;;6.12;47.39
58991;BME280;44781;53.444;14.476;2023-03-04T15:03:42;101438.09;;;6.22;47.29
58991;BME280;44781;53.444;14.476;2023-03-04T15:06:19;101442.95;;;6.32;46.74
58991;BME280;44781;53.444;14.476;2023-03-04T15:14:43;101428.37;;;6.43;45.91
58991;BME280;44781;53.444;14.476;2023-03-04T15:17:40;101426.83;;;6.49;45.92
58991;BME280;44781;53.444;14.476;2023-03-04T15:22:59;101428.73;;;6.68;45.40
58991;BME280;44781;53.444;14.476;2023-03-04T15:25:27;101431.46;;;6.73;44.98
58991;BME280;44781;53.444;14.476;2023-03-04T15:27:56;101432.39;;;6.76;44.80
58991;BME280;44781;53.444;14.476;2023-03-04T15:30:30;101431.13;;;6.80;44.93
58991;BME280;44781;53.444;14.476;2023-03-04T15:32:59;101432.39;;;6.83;44.54